Latest Coastal Weather Observations for Rottnest Island

IDW60701

Issued at 12:32 pm WST Monday 3 August 2015 (issued every 10 minutes, with the page automatically refreshed every 10 minutes)

About coastal observations | Map of coastal stations | Coastal observations for WA | Marine services | Other Formats
Station Details ID: 009193 Name: ROTTNEST ISLAND Lat: -32.01 Lon: 115.50 Height: 43.1 m
Data from the previous 72 hours. | See also: Recent months at Rottnest Island
Date/Time
WST
Temp

°C
Wind Pressure Rain
since 9am
mm
Weather Cloud Vis
km
Sea
Height
m
Swell
Dir
 
Speed
knots
Gust
knots
hPa Trend Height
m
Period
s
Dir
03/12:30pm 14.9 E 8 13 1033.5 - 0.0 - - - - - - -
03/12:00pm 15.1 E 10 16 1034.0 - 0.0 - - - - - - -
03/11:30am 14.5 E 9 13 1034.7 - 0.0 - - - - - - -
03/11:00am 14.6 ENE 7 11 1034.9 - 0.0 - - - - - - -
03/10:30am 13.7 NE 7 11 1035.1 - 0.0 - - - - - - -
03/10:00am 13.8 ENE 8 11 1035.4 - 0.0 - - - - - - -
03/09:30am 13.3 ENE 10 14 1035.3 - 0.0 - - - - - - -
03/09:00am 13.0 E 9 13 1035.3 - 0.0 - - - - - - -
03/08:30am 12.4 E 9 12 1034.9 - 0.0 - - - - - - -
03/08:00am 11.7 E 9 14 1034.7 - 0.0 - - - - - - -
03/07:30am 11.0 ESE 8 11 1034.4 - 0.0 - - - - - - -
03/07:00am 11.0 ESE 8 11 1033.9 - 0.0 - - - - - - -
03/06:30am 11.3 ESE 8 11 1033.7 - 0.0 - - - - - - -
03/06:00am 11.5 ESE 9 12 1033.4 - 0.0 - - - - - - -
03/05:30am 11.4 ESE 8 10 1033.5 - 0.0 - - - - - - -
03/05:00am 11.6 ESE 8 11 1033.3 - 0.0 - - - - - - -
03/04:30am 11.7 ESE 9 12 1033.4 - 0.0 - - - - - - -
03/04:00am 11.7 E 9 12 1033.5 - 0.0 - - - - - - -
03/03:30am 11.7 E 9 14 1033.5 - 0.0 - - - - - - -
03/03:00am 11.8 E 10 13 1033.7 - 0.0 - - - - - - -
03/02:30am 11.6 E 9 12 1034.0 - 0.0 - - - - - - -
03/02:00am 11.4 E 9 11 1034.2 - 0.0 - - - - - - -
03/01:30am 11.7 E 9 11 1034.2 - 0.0 - - - - - - -
03/01:00am 12.0 E 10 13 1034.1 - 0.0 - - - - - - -
03/12:30am 12.0 E 10 14 1033.9 - 0.0 - - - - - - -
03/12:00am 12.4 E 11 16 1033.8 - 0.0 - - - - - - -
 
Date/Time
WST
Temp

°C
Wind Pressure Rain
since 9am
mm
Weather Cloud Vis
km
Sea
Height
m
Swell
Dir
 
Speed
knots
Gust
knots
hPa Trend Height
m
Period
s
Dir
02/11:30pm 12.3 E 9 11 1033.9 - 0.0 - - - - - - -
02/11:00pm 12.3 E 10 12 1033.7 - 0.0 - - - - - - -
02/10:30pm 12.8 E 10 14 1033.8 - 0.0 - - - - - - -
02/10:00pm 13.0 E 11 15 1033.9 - 0.0 - - - - - - -
02/09:30pm 13.1 E 11 15 1034.0 - 0.0 - - - - - - -
02/09:00pm 13.2 E 10 14 1034.0 - 0.0 - - - - - - -
02/08:30pm 13.1 E 10 14 1033.8 - 0.0 - - - - - - -
02/08:00pm 13.8 E 12 16 1033.6 - 0.0 - - - - - - -
02/07:30pm 13.8 E 8 12 1033.3 - 0.0 - - - - - - -
02/07:00pm 13.8 E 8 11 1033.3 - 0.0 - - - - - - -
02/06:30pm 14.4 ESE 7 9 1033.2 - 0.0 - - - - - - -
02/06:00pm 14.4 ESE 6 8 1032.8 - 0.0 - - - - - - -
02/05:30pm 14.1 SSE 9 11 1032.5 - 0.0 - - - - - - -
02/05:00pm 14.5 SSE 10 12 1032.0 - 0.0 - - - - - - -
02/04:30pm 14.8 S 11 13 1031.9 - 0.0 - - - - - - -
02/04:00pm 15.0 SSE 9 12 1031.8 - 0.0 - - - - - - -
02/03:30pm 15.0 SSE 9 12 1031.6 - 0.0 - - - - - - -
02/03:00pm 15.2 SE 8 12 1031.6 - 0.0 - - - - - - -
02/02:30pm 14.6 SE 9 12 1031.6 - 0.0 - - - - - - -
02/02:00pm 14.5 SSE 10 13 1031.7 - 0.0 - - - - - - -
02/01:30pm 13.8 E 7 11 1032.0 - 0.0 - - - - - - -
02/01:00pm 13.8 SE 9 13 1032.3 - 0.0 - - - - - - -
02/12:30pm 13.2 ESE 9 14 1032.9 - 0.0 - - - - - - -
02/12:00pm 13.0 SE 10 14 1033.5 - 0.0 - - - - - - -
02/11:30am 12.7 ESE 11 14 1034.0 - 0.0 - - - - - - -
02/11:00am 12.7 ESE 10 13 1034.1 - 0.0 - - - - - - -
02/10:30am 12.8 ESE 10 16 1034.2 - 0.0 - - - - - - -
02/10:00am 12.3 E 10 16 1034.3 - 0.0 - - - - - - -
02/09:30am 12.2 ESE 11 15 1034.1 - 0.0 - - - - - - -
02/09:00am 12.2 E 12 17 1033.7 - 0.0 - - - - - - -
02/08:30am 11.5 ESE 10 14 1033.5 - 0.0 - - - - - - -
02/08:00am 11.4 ESE 11 17 1033.2 - 0.0 - - - - - - -
02/07:30am 11.3 ESE 10 13 1032.9 - 0.0 - - - - - - -
02/07:00am 11.4 E 9 14 1032.5 - 0.0 - - - - - - -
02/06:30am 11.5 E 9 13 1032.2 - 0.0 - - - - - - -
02/06:00am 11.3 ESE 9 13 1031.8 - 0.0 - - - - - - -
02/05:30am 11.7 ESE 11 16 1031.5 - 0.0 - - - - - - -
02/05:00am 11.8 E 11 16 1031.4 - 0.0 - - - - - - -
02/04:30am 12.0 SE 12 18 1031.1 - 0.0 - - - - - - -
02/04:00am 12.0 ESE 11 19 1030.8 - 0.0 - - - - - - -
02/03:30am 12.2 SE 11 17 1030.9 - 0.0 - - - - - - -
02/03:00am 12.2 ESE 9 13 1030.8 - 0.0 - - - - - - -
02/02:30am 12.5 ESE 11 17 1030.7 - 0.0 - - - - - - -
02/02:00am 12.4 ESE 10 15 1030.9 - 0.0 - - - - - - -
02/01:30am 12.3 ESE 10 14 1030.7 - 0.0 - - - - - - -
02/01:00am 12.3 ESE 11 17 1030.7 - 0.0 - - - - - - -
02/12:30am 12.7 ESE 11 16 1030.6 - 0.0 - - - - - - -
02/12:00am 12.8 ESE 12 17 1030.5 - 0.0 - - - - - - -
 
Date/Time
WST
Temp

°C
Wind Pressure Rain
since 9am
mm
Weather Cloud Vis
km
Sea
Height
m
Swell
Dir
 
Speed
knots
Gust
knots
hPa Trend Height
m
Period
s
Dir
01/11:30pm 13.0 SE 13 19 1030.3 - 0.0 - - - - - - -
01/11:00pm 13.1 ESE 13 19 1030.2 - 0.0 - - - - - - -
01/10:30pm 13.1 SE 11 18 1030.1 - 0.0 - - - - - - -
01/10:00pm 13.1 ESE 11 17 1029.9 - 0.0 - - - - - - -
01/09:30pm 13.3 ESE 12 18 1029.8 - 0.0 - - - - - - -
01/09:00pm 13.3 ESE 12 21 1029.6 - 0.0 - - - - - - -
01/08:30pm 13.2 ESE 14 19 1029.1 - 0.0 - - - - - - -
01/08:00pm 13.4 ESE 13 19 1028.7 - 0.0 - - - - - - -
01/07:30pm 13.6 ESE 11 16 1028.3 - 0.0 - - - - - - -
01/07:00pm 13.8 ESE 13 18 1027.9 - 0.0 - - - - - - -
01/06:30pm 13.8 SE 13 19 1027.3 - 0.0 - - - - - - -
01/06:00pm 14.4 SE 15 23 1026.8 - 0.0 - - - - - - -
01/05:30pm 14.8 SE 19 25 1026.2 - 0.0 - - - - - - -
01/05:00pm 15.2 SE 17 23 1026.0 - 0.0 - - - - - - -
01/04:30pm 15.3 SSE 19 25 1025.5 - 0.0 - - - - - - -
01/04:00pm 15.5 SSE 19 23 1025.1 - 0.0 - - - - - - -
01/03:30pm 15.5 SSE 18 24 1024.7 - 0.0 - - - - - - -
01/03:00pm 15.6 SSE 18 23 1024.2 - 0.0 - - - - - - -
01/02:30pm 16.0 SSE 18 22 1024.0 - 0.0 - - - - - - -
01/02:00pm 16.7 SSE 16 23 1023.9 - 0.0 - - - - - - -
01/01:30pm 16.2 SSE 17 21 1024.0 - 0.0 - - - - - - -
01/01:00pm 15.7 SSE 19 23 1023.9 - 0.0 - - - - - - -
01/12:30pm 15.5 SSE 17 22 1024.3 - 0.0 - - - - - - -
01/12:00pm 15.2 SSE 16 23 1024.2 - 0.0 - - - - - - -
01/11:30am 15.2 SE 17 23 1024.4 - 0.0 - - - - - - -
01/11:00am 14.5 SE 19 24 1024.3 - 0.0 - - - - - - -
01/10:30am 14.2 SE 18 24 1024.4 - 0.0 - - - - - - -
01/10:00am 13.7 SE 21 27 1024.0 - 0.0 - - - - - - -
01/09:30am 13.4 SE 19 24 1023.8 - 0.0 - - - - - - -
01/09:00am 13.2 SE 22 27 1023.2 - 0.0 - - - - - - -
01/08:41am 13.2 SE 21 32 1022.7 - 0.0 - - - - - - -
01/08:30am 12.9 SE 23 30 1022.7 - 0.0 - - - - - - -
01/08:00am 13.0 SE 25 33 1021.5 - 0.0 - - - - - - -
01/07:30am 13.0 SE 23 31 1020.8 - 0.0 - - - - - - -
01/07:00am 13.0 SE 20 27 1020.7 - 0.0 - - - - - - -
01/06:30am 12.7 SE 21 27 1019.8 - 0.0 - - - - - - -
01/06:00am 12.9 SE 22 28 1019.3 - 0.0 - - - - - - -
01/05:30am 13.1 SE 21 28 1019.0 - 0.0 - - - - - - -
01/05:00am 13.4 SE 21 27 1018.4 - 0.0 - - - - - - -
01/04:30am 13.5 SE 21 28 1017.9 - 0.0 - - - - - - -
01/04:09am 13.5 SE 23 33 1017.5 - 0.0 - - - - - - -
01/04:00am 13.4 SE 23 28 1017.7 - 0.0 - - - - - - -
01/03:30am 13.3 SE 22 31 1017.6 - 0.0 - - - - - - -
01/03:00am 13.1 SE 18 28 1017.4 - 0.0 - - - - - - -
01/02:30am 13.0 SE 19 29 1016.9 - 0.0 - - - - - - -
01/02:00am 13.1 SE 19 31 1016.9 - 0.0 - - - - - - -
01/01:36am 13.5 SE 21 31 1016.5 - 0.0 - - - - - - -
01/01:30am 13.5 SE 23 30 1016.5 - 0.0 - - - - - - -
01/01:00am 13.5 SE 22 33 1016.1 - 0.0 - - - - - - -
01/12:31am 13.9 SE 22 32 1015.6 - 0.0 - - - - - - -
01/12:30am 13.8 SE 22 30 1015.7 - 0.0 - - - - - - -
01/12:13am 13.7 SE 22 32 1015.4 - 0.0 - - - - - - -
01/12:00am 13.9 SE 25 33 1015.1 - 0.0 - - - - - - -
 
Date/Time
WST
Temp

°C
Wind Pressure Rain
since 9am
mm
Weather Cloud Vis
km
Sea
Height
m
Swell
Dir
 
Speed
knots
Gust
knots
hPa Trend Height
m
Period
s
Dir
31/11:30pm 14.3 SE 23 31 1014.6 - 0.0 - - - - - - -
31/11:00pm 14.4 SE 18 29 1014.5 - 0.0 - - - - - - -
31/10:33pm 14.9 SE 21 31 1014.1 - 0.0 - - - - - - -
31/10:30pm 15.0 SE 22 31 1013.8 - 0.0 - - - - - - -
31/10:00pm 15.5 SE 23 29 1013.5 - 0.0 - - - - - - -
31/09:30pm 15.9 SE 24 30 1013.1 - 0.0 - - - - - - -
31/09:00pm 16.3 SE 19 24 1013.0 - 0.0 - - - - - - -
31/08:30pm 16.8 SSE 18 21 1012.8 - 0.0 - - - - - - -
31/08:00pm 17.5 SSW 12 16 1012.8 - 0.0 - - - - - - -
31/07:30pm 17.2 S 11 15 1012.6 - 0.0 - - - - - - -
31/07:00pm 17.6 SSW 12 16 1012.4 - 0.0 - - - - - - -
31/06:30pm 17.6 SSW 10 12 1012.0 - 0.0 - - - - - - -
31/06:00pm 17.5 SSW 11 13 1011.2 - 0.0 - - - - - - -
31/05:30pm 17.6 SSW 9 11 1010.8 - 0.0 - - - - - - -
31/05:00pm 17.7 SSW 10 11 1010.9 - 0.0 - - - - - - -
31/04:30pm 18.6 SSW 8 11 1011.0 - 0.0 - - - - - - -
31/04:00pm 19.0 SSW 8 11 1011.0 - 0.0 - - - - - - -
31/03:30pm 19.2 SSW 9 11 1011.0 - 0.0 - - - - - - -
31/03:00pm 19.5 SSW 9 11 1010.9 - 0.0 - - - - - - -
31/02:30pm 19.4 SSW 8 11 1010.7 - 0.0 - - - - - - -
31/02:00pm 19.3 S 10 12 1010.8 - 0.0 - - - - - - -
31/01:30pm 19.5 SSW 11 13 1010.9 - 0.0 - - - - - - -
31/01:00pm 19.9 S 11 13 1011.6 - 0.0 - - - - - - -

Other Formats:

Comma delimited format used in spreadsheet applications
http://www.bom.gov.au/fwo/IDW60701/IDW60701.94602.axf

JavaScript Object Notation format (JSON) in row-major order
http://www.bom.gov.au/fwo/IDW60701/IDW60701.94602.json